sensor_id;sensor_type;location;lat;lon;timestamp;pressure;altitude;pressure_sealevel;temperature
62930;BMP280;49036;42.782;23.108;2023-06-10T00:00:49;93623.75;;;15.33
62930;BMP280;49036;42.782;23.108;2023-06-10T00:03:16;93631.44;;;15.32
62930;BMP280;49036;42.782;23.108;2023-06-10T00:05:41;93630.63;;;15.29
62930;BMP280;49036;42.782;23.108;2023-06-10T00:08:07;93639.00;;;15.29
62930;BMP280;49036;42.782;23.108;2023-06-10T00:10:38;93631.63;;;15.20
62930;BMP280;49036;42.782;23.108;2023-06-10T00:13:05;93623.41;;;15.24
62930;BMP280;49036;42.782;23.108;2023-06-10T00:15:32;93617.81;;;15.24
62930;BMP280;49036;42.782;23.108;2023-06-10T00:17:58;93610.06;;;15.23
62930;BMP280;49036;42.782;23.108;2023-06-10T00:20:23;93614.38;;;15.26
62930;BMP280;49036;42.782;23.108;2023-06-10T00:22:50;93612.22;;;15.24
62930;BMP280;49036;42.782;23.108;2023-06-10T00:25:16;93610.44;;;15.15
62930;BMP280;49036;42.782;23.108;2023-06-10T00:27:45;93616.56;;;15.12
62930;BMP280;49036;42.782;23.108;2023-06-10T00:30:11;93622.69;;;15.08
62930;BMP280;49036;42.782;23.108;2023-06-10T00:32:36;93629.25;;;14.99
62930;BMP280;49036;42.782;23.108;2023-06-10T00:35:05;93633.75;;;14.90
62930;BMP280;49036;42.782;23.108;2023-06-10T00:37:34;93638.25;;;14.82
62930;BMP280;49036;42.782;23.108;2023-06-10T00:40:02;93638.16;;;14.80
62930;BMP280;49036;42.782;23.108;2023-06-10T00:42:28;93633.38;;;14.82
62930;BMP280;49036;42.782;23.108;2023-06-10T00:44:54;93634.81;;;14.83
62930;BMP280;49036;42.782;23.108;2023-06-10T00:47:20;93633.81;;;14.77
62930;BMP280;49036;42.782;23.108;2023-06-10T00:49:47;93627.41;;;14.74
62930;BMP280;49036;42.782;23.108;2023-06-10T00:52:14;93630.72;;;14.71
62930;BMP280;49036;42.782;23.108;2023-06-10T00:54:40;93640.25;;;14.66
62930;BMP280;49036;42.782;23.108;2023-06-10T00:57:06;93638.03;;;14.62
62930;BMP280;49036;42.782;23.108;2023-06-10T00:59:33;93631.69;;;14.61
62930;BMP280;49036;42.782;23.108;2023-06-10T01:01:59;93632.88;;;14.56
62930;BMP280;49036;42.782;23.108;2023-06-10T01:04:26;93639.06;;;14.55
62930;BMP280;49036;42.782;23.108;2023-06-10T01:12:19;93626.56;;;14.56
62930;BMP280;49036;42.782;23.108;2023-06-10T01:14:46;93633.41;;;14.53
62930;BMP280;49036;42.782;23.108;2023-06-10T01:17:12;93621.50;;;14.52
62930;BMP280;49036;42.782;23.108;2023-06-10T01:19:41;93624.38;;;14.54
62930;BMP280;49036;42.782;23.108;2023-06-10T01:22:09;93627.28;;;14.56
62930;BMP280;49036;42.782;23.108;2023-06-10T01:24:37;93617.28;;;14.51
62930;BMP280;49036;42.782;23.108;2023-06-10T01:27:10;93622.28;;;14.55
62930;BMP280;49036;42.782;23.108;2023-06-10T01:29:43;93621.50;;;14.52
62930;BMP280;49036;42.782;23.108;2023-06-10T01:32:19;93615.91;;;14.52
62930;BMP280;49036;42.782;23.108;2023-06-10T01:34:47;93607.75;;;14.56
62930;BMP280;49036;42.782;23.108;2023-06-10T01:37:17;93606.09;;;14.51
62930;BMP280;49036;42.782;23.108;2023-06-10T01:39:45;93604.03;;;14.52
62930;BMP280;49036;42.782;23.108;2023-06-10T01:42:12;93601.22;;;14.52
62930;BMP280;49036;42.782;23.108;2023-06-10T01:44:39;93611.13;;;14.55
62930;BMP280;49036;42.782;23.108;2023-06-10T01:47:05;93607.44;;;14.50
62930;BMP280;49036;42.782;23.108;2023-06-10T01:49:30;93600.41;;;14.49
62930;BMP280;49036;42.782;23.108;2023-06-10T01:51:56;93590.06;;;14.52
62930;BMP280;49036;42.782;23.108;2023-06-10T01:54:21;93601.66;;;14.46
62930;BMP280;49036;42.782;23.108;2023-06-10T01:56:47;93596.59;;;14.43
62930;BMP280;49036;42.782;23.108;2023-06-10T01:59:12;93596.31;;;14.37
62930;BMP280;49036;42.782;23.108;2023-06-10T02:01:38;93584.97;;;14.33
62930;BMP280;49036;42.782;23.108;2023-06-10T02:04:03;93591.34;;;14.35
62930;BMP280;49036;42.782;23.108;2023-06-10T02:06:29;93592.09;;;14.36
62930;BMP280;49036;42.782;23.108;2023-06-10T02:08:55;93591.97;;;14.34
62930;BMP280;49036;42.782;23.108;2023-06-10T02:11:20;93589.00;;;14.29
62930;BMP280;49036;42.782;23.108;2023-06-10T02:13:47;93589.75;;;14.30
62930;BMP280;49036;42.782;23.108;2023-06-10T02:16:12;93579.91;;;14.29
62930;BMP280;49036;42.782;23.108;2023-06-10T02:18:40;93581.16;;;14.26
62930;BMP280;49036;42.782;23.108;2023-06-10T02:21:08;93581.88;;;14.26
62930;BMP280;49036;42.782;23.108;2023-06-10T02:23:34;93585.00;;;14.19
62930;BMP280;49036;42.782;23.108;2023-06-10T02:26:00;93594.91;;;14.22
62930;BMP280;49036;42.782;23.108;2023-06-10T02:28:25;93585.38;;;14.27
62930;BMP280;49036;42.782;23.108;2023-06-10T02:30:51;93598.13;;;14.30
62930;BMP280;49036;42.782;23.108;2023-06-10T02:33:17;93588.75;;;14.39
62930;BMP280;49036;42.782;23.108;2023-06-10T02:35:43;93588.75;;;14.39
62930;BMP280;49036;42.782;23.108;2023-06-10T02:38:08;93591.56;;;14.39
62930;BMP280;49036;42.782;23.108;2023-06-10T02:40:34;93590.50;;;14.46
62930;BMP280;49036;42.782;23.108;2023-06-10T02:42:59;93597.34;;;14.43
62930;BMP280;49036;42.782;23.108;2023-06-10T02:45:25;93596.50;;;14.41
62930;BMP280;49036;42.782;23.108;2023-06-10T02:47:50;93589.06;;;14.45
62930;BMP280;49036;42.782;23.108;2023-06-10T02:50:16;93586.34;;;14.47
62930;BMP280;49036;42.782;23.108;2023-06-10T02:52:43;93591.94;;;14.47
62930;BMP280;49036;42.782;23.108;2023-06-10T02:55:08;93587.78;;;14.48
62930;BMP280;49036;42.782;23.108;2023-06-10T02:57:35;93599.06;;;14.50
62930;BMP280;49036;42.782;23.108;2023-06-10T03:00:00;93596.00;;;14.44
62930;BMP280;49036;42.782;23.108;2023-06-10T03:02:26;93596.28;;;14.50
62930;BMP280;49036;42.782;23.108;2023-06-10T03:04:57;93609.38;;;14.48
62930;BMP280;49036;42.782;23.108;2023-06-10T03:07:23;93604.38;;;14.44
62930;BMP280;49036;42.782;23.108;2023-06-10T03:09:48;93607.16;;;14.44
62930;BMP280;49036;42.782;23.108;2023-06-10T03:12:14;93603.00;;;14.45
62930;BMP280;49036;42.782;23.108;2023-06-10T03:14:41;93606.97;;;14.40
62930;BMP280;49036;42.782;23.108;2023-06-10T03:17:06;93602.28;;;14.45
62930;BMP280;49036;42.782;23.108;2023-06-10T03:19:34;93602.47;;;14.49
62930;BMP280;49036;42.782;23.108;2023-06-10T03:22:10;93604.53;;;14.48
62930;BMP280;49036;42.782;23.108;2023-06-10T03:24:36;93606.88;;;14.54
62930;BMP280;49036;42.782;23.108;2023-06-10T03:27:08;93596.56;;;14.56
62930;BMP280;49036;42.782;23.108;2023-06-10T03:29:35;93597.34;;;14.59
62930;BMP280;49036;42.782;23.108;2023-06-10T03:32:01;93589.78;;;14.61
62930;BMP280;49036;42.782;23.108;2023-06-10T03:34:27;93593.44;;;14.64
62930;BMP280;49036;42.782;23.108;2023-06-10T03:36:52;93606.75;;;14.66
62930;BMP280;49036;42.782;23.108;2023-06-10T03:39:18;93607.66;;;14.70
62930;BMP280;49036;42.782;23.108;2023-06-10T03:41:43;93599.38;;;14.72
62930;BMP280;49036;42.782;23.108;2023-06-10T03:44:09;93605.69;;;14.73
62930;BMP280;49036;42.782;23.108;2023-06-10T03:46:34;93604.53;;;14.78
62930;BMP280;49036;42.782;23.108;2023-06-10T03:49:00;93599.75;;;14.80
62930;BMP280;49036;42.782;23.108;2023-06-10T03:51:26;93601.19;;;14.81
62930;BMP280;49036;42.782;23.108;2023-06-10T03:53:52;93599.13;;;14.82
62930;BMP280;49036;42.782;23.108;2023-06-10T03:56:17;93600.94;;;14.91
62930;BMP280;49036;42.782;23.108;2023-06-10T03:58:43;93603.75;;;14.91
62930;BMP280;49036;42.782;23.108;2023-06-10T04:01:08;93599.22;;;15.00
62930;BMP280;49036;42.782;23.108;2023-06-10T04:03:34;93601.59;;;15.05
62930;BMP280;49036;42.782;23.108;2023-06-10T04:05:59;93599.06;;;15.11
62930;BMP280;49036;42.782;23.108;2023-06-10T04:08:25;93606.47;;;15.20
62930;BMP280;49036;42.782;23.108;2023-06-10T04:10:50;93599.94;;;15.32
62930;BMP280;49036;42.782;23.108;2023-06-10T04:13:16;93603.38;;;15.46
62930;BMP280;49036;42.782;23.108;2023-06-10T04:15:42;93604.19;;;15.48
62930;BMP280;49036;42.782;23.108;2023-06-10T04:18:08;93600.84;;;15.52
62930;BMP280;49036;42.782;23.108;2023-06-10T04:20:33;93593.16;;;15.68
62930;BMP280;49036;42.782;23.108;2023-06-10T04:22:59;93597.81;;;15.79
62930;BMP280;49036;42.782;23.108;2023-06-10T04:25:25;93602.13;;;15.82
62930;BMP280;49036;42.782;23.108;2023-06-10T04:27:51;93604.94;;;15.82
62930;BMP280;49036;42.782;23.108;2023-06-10T04:30:17;93596.97;;;15.92
62930;BMP280;49036;42.782;23.108;2023-06-10T04:32:43;93603.16;;;16.07
62930;BMP280;49036;42.782;23.108;2023-06-10T04:35:11;93600.38;;;16.24
62930;BMP280;49036;42.782;23.108;2023-06-10T04:37:37;93608.31;;;16.30
62930;BMP280;49036;42.782;23.108;2023-06-10T04:40:04;93611.41;;;16.38
62930;BMP280;49036;42.782;23.108;2023-06-10T04:42:30;93609.34;;;16.39
62930;BMP280;49036;42.782;23.108;2023-06-10T04:44:56;93611.31;;;16.54
62930;BMP280;49036;42.782;23.108;2023-06-10T04:47:21;93605.88;;;16.58
62930;BMP280;49036;42.782;23.108;2023-06-10T04:49:47;93614.69;;;16.68
62930;BMP280;49036;42.782;23.108;2023-06-10T04:52:13;93615.41;;;16.69
62930;BMP280;49036;42.782;23.108;2023-06-10T04:55:31;93604.50;;;16.77
62930;BMP280;49036;42.782;23.108;2023-06-10T04:57:56;93602.25;;;16.73
62930;BMP280;49036;42.782;23.108;2023-06-10T05:02:22;93596.41;;;16.85
62930;BMP280;49036;42.782;23.108;2023-06-10T05:04:47;93608.66;;;16.93
62930;BMP280;49036;42.782;23.108;2023-06-10T05:08:42;93605.19;;;17.13
62930;BMP280;49036;42.782;23.108;2023-06-10T05:11:08;93612.09;;;17.29
62930;BMP280;49036;42.782;23.108;2023-06-10T05:16:17;93616.03;;;17.42
62930;BMP280;49036;42.782;23.108;2023-06-10T05:18:43;93623.75;;;17.61
62930;BMP280;49036;42.782;23.108;2023-06-10T05:22:11;93624.16;;;17.74
62930;BMP280;49036;42.782;23.108;2023-06-10T05:24:37;93614.22;;;17.90
62930;BMP280;49036;42.782;23.108;2023-06-10T05:27:03;93616.84;;;18.06
62930;BMP280;49036;42.782;23.108;2023-06-10T05:29:29;93607.56;;;18.01
62930;BMP280;49036;42.782;23.108;2023-06-10T05:31:55;93609.78;;;18.05
62930;BMP280;49036;42.782;23.108;2023-06-10T05:34:22;93609.78;;;18.27
62930;BMP280;49036;42.782;23.108;2023-06-10T05:36:48;93615.72;;;18.37
62930;BMP280;49036;42.782;23.108;2023-06-10T05:39:13;93608.38;;;18.48
62930;BMP280;49036;42.782;23.108;2023-06-10T05:41:39;93605.56;;;18.48
62930;BMP280;49036;42.782;23.108;2023-06-10T05:44:04;93617.03;;;18.56
62930;BMP280;49036;42.782;23.108;2023-06-10T05:46:30;93611.34;;;18.54
62930;BMP280;49036;42.782;23.108;2023-06-10T05:48:55;93620.13;;;18.88
62930;BMP280;49036;42.782;23.108;2023-06-10T05:51:21;93619.56;;;18.69
62930;BMP280;49036;42.782;23.108;2023-06-10T05:53:46;93617.84;;;18.82
62930;BMP280;49036;42.782;23.108;2023-06-10T05:56:14;93627.94;;;18.91
62930;BMP280;49036;42.782;23.108;2023-06-10T05:58:39;93626.31;;;18.84
62930;BMP280;49036;42.782;23.108;2023-06-10T06:01:05;93623.03;;;18.92
62930;BMP280;49036;42.782;23.108;2023-06-10T06:03:30;93633.38;;;18.85
62930;BMP280;49036;42.782;23.108;2023-06-10T06:05:56;93631.84;;;19.04
62930;BMP280;49036;42.782;23.108;2023-06-10T06:08:21;93638.59;;;19.19
62930;BMP280;49036;42.782;23.108;2023-06-10T06:10:47;93635.25;;;19.24
62930;BMP280;49036;42.782;23.108;2023-06-10T06:13:15;93636.31;;;19.37
62930;BMP280;49036;42.782;23.108;2023-06-10T06:15:41;93641.16;;;19.34
62930;BMP280;49036;42.782;23.108;2023-06-10T06:18:06;93633.97;;;19.29
62930;BMP280;49036;42.782;23.108;2023-06-10T06:20:32;93639.66;;;19.31
62930;BMP280;49036;42.782;23.108;2023-06-10T06:22:57;93636.19;;;19.33
62930;BMP280;49036;42.782;23.108;2023-06-10T06:25:23;93635.16;;;19.72
62930;BMP280;49036;42.782;23.108;2023-06-10T06:27:48;93637.16;;;19.95
62930;BMP280;49036;42.782;23.108;2023-06-10T06:30:14;93634.84;;;20.15
62930;BMP280;49036;42.782;23.108;2023-06-10T06:32:40;93639.47;;;20.03
62930;BMP280;49036;42.782;23.108;2023-06-10T06:35:05;93636.09;;;20.08
62930;BMP280;49036;42.782;23.108;2023-06-10T06:37:33;93625.78;;;20.19
62930;BMP280;49036;42.782;23.108;2023-06-10T06:39:59;93623.50;;;20.41
62930;BMP280;49036;42.782;23.108;2023-06-10T06:42:24;93627.69;;;20.70
62930;BMP280;49036;42.782;23.108;2023-06-10T06:44:50;93623.94;;;20.91
62930;BMP280;49036;42.782;23.108;2023-06-10T06:47:16;93629.53;;;20.89
62930;BMP280;49036;42.782;23.108;2023-06-10T06:49:46;93622.25;;;21.10
62930;BMP280;49036;42.782;23.108;2023-06-10T06:52:12;93623.34;;;21.31
62930;BMP280;49036;42.782;23.108;2023-06-10T06:54:37;93614.84;;;21.67
62930;BMP280;49036;42.782;23.108;2023-06-10T06:57:03;93615.63;;;22.12
62930;BMP280;49036;42.782;23.108;2023-06-10T06:59:29;93612.41;;;22.31
62930;BMP280;49036;42.782;23.108;2023-06-10T07:01:54;93610.75;;;22.16
62930;BMP280;49036;42.782;23.108;2023-06-10T07:04:20;93607.72;;;22.48
62930;BMP280;49036;42.782;23.108;2023-06-10T07:06:47;93615.59;;;22.56
62930;BMP280;49036;42.782;23.108;2023-06-10T07:09:13;93615.84;;;22.74
62930;BMP280;49036;42.782;23.108;2023-06-10T07:13:29;93605.47;;;22.40
62930;BMP280;49036;42.782;23.108;2023-06-10T07:15:55;93610.16;;;22.70
62930;BMP280;49036;42.782;23.108;2023-06-10T07:18:20;93615.94;;;22.78
62930;BMP280;49036;42.782;23.108;2023-06-10T07:20:46;93607.31;;;22.70
62930;BMP280;49036;42.782;23.108;2023-06-10T07:24:10;93606.56;;;22.67
62930;BMP280;49036;42.782;23.108;2023-06-10T07:26:35;93608.41;;;22.47
62930;BMP280;49036;42.782;23.108;2023-06-10T07:29:01;93608.09;;;22.26
62930;BMP280;49036;42.782;23.108;2023-06-10T07:31:26;93609.94;;;22.10
62930;BMP280;49036;42.782;23.108;2023-06-10T07:33:52;93604.34;;;21.74
62930;BMP280;49036;42.782;23.108;2023-06-10T07:36:17;93612.75;;;21.67
62930;BMP280;49036;42.782;23.108;2023-06-10T07:38:43;93611.47;;;21.77
62930;BMP280;49036;42.782;23.108;2023-06-10T07:41:09;93607.56;;;21.94
62930;BMP280;49036;42.782;23.108;2023-06-10T07:43:37;93598.06;;;22.17
62930;BMP280;49036;42.782;23.108;2023-06-10T07:46:02;93602.53;;;22.32
62930;BMP280;49036;42.782;23.108;2023-06-10T07:48:28;93603.66;;;22.15
62930;BMP280;49036;42.782;23.108;2023-06-10T07:50:53;93597.09;;;22.47
62930;BMP280;49036;42.782;23.108;2023-06-10T07:53:19;93597.69;;;22.39
62930;BMP280;49036;42.782;23.108;2023-06-10T07:55:45;93600.66;;;22.49
62930;BMP280;49036;42.782;23.108;2023-06-10T07:59:10;93596.91;;;22.34
62930;BMP280;49036;42.782;23.108;2023-06-10T08:01:35;93602.31;;;22.64
62930;BMP280;49036;42.782;23.108;2023-06-10T08:04:03;93592.13;;;23.59
62930;BMP280;49036;42.782;23.108;2023-06-10T08:06:29;93589.94;;;24.43
62930;BMP280;49036;42.782;23.108;2023-06-10T08:08:55;93590.16;;;24.77
62930;BMP280;49036;42.782;23.108;2023-06-10T08:11:20;93592.31;;;24.83
62930;BMP280;49036;42.782;23.108;2023-06-10T08:13:46;93591.38;;;24.37
62930;BMP280;49036;42.782;23.108;2023-06-10T08:16:11;93587.78;;;24.33
62930;BMP280;49036;42.782;23.108;2023-06-10T08:18:37;93587.00;;;24.24
62930;BMP280;49036;42.782;23.108;2023-06-10T08:21:02;93584.56;;;24.91
62930;BMP280;49036;42.782;23.108;2023-06-10T08:23:28;93589.50;;;24.93
62930;BMP280;49036;42.782;23.108;2023-06-10T08:25:53;93574.06;;;25.44
62930;BMP280;49036;42.782;23.108;2023-06-10T08:28:19;93577.66;;;25.81
62930;BMP280;49036;42.782;23.108;2023-06-10T08:30:45;93575.41;;;25.25
62930;BMP280;49036;42.782;23.108;2023-06-10T08:33:10;93574.34;;;24.37
62930;BMP280;49036;42.782;23.108;2023-06-10T08:35:36;93578.47;;;24.20
62930;BMP280;49036;42.782;23.108;2023-06-10T08:38:01;93574.69;;;23.91
62930;BMP280;49036;42.782;23.108;2023-06-10T08:40:27;93580.50;;;24.10
62930;BMP280;49036;42.782;23.108;2023-06-10T08:45:23;93570.50;;;23.22
62930;BMP280;49036;42.782;23.108;2023-06-10T08:47:50;93569.97;;;23.42
62930;BMP280;49036;42.782;23.108;2023-06-10T08:50:19;93563.56;;;24.22
62930;BMP280;49036;42.782;23.108;2023-06-10T08:52:47;93559.06;;;25.07
62930;BMP280;49036;42.782;23.108;2023-06-10T08:55:30;93563.38;;;25.35
62930;BMP280;49036;42.782;23.108;2023-06-10T08:57:59;93556.31;;;25.68
62930;BMP280;49036;42.782;23.108;2023-06-10T09:00:25;93549.94;;;26.06
62930;BMP280;49036;42.782;23.108;2023-06-10T09:02:51;93556.31;;;25.40
62930;BMP280;49036;42.782;23.108;2023-06-10T09:05:17;93552.47;;;24.62
62930;BMP280;49036;42.782;23.108;2023-06-10T09:07:42;93543.88;;;24.46
62930;BMP280;49036;42.782;23.108;2023-06-10T09:10:10;93548.91;;;24.56
62930;BMP280;49036;42.782;23.108;2023-06-10T09:12:36;93546.69;;;24.42
62930;BMP280;49036;42.782;23.108;2023-06-10T09:15:04;93540.34;;;24.48
62930;BMP280;49036;42.782;23.108;2023-06-10T09:17:29;93539.03;;;24.69
62930;BMP280;49036;42.782;23.108;2023-06-10T09:19:56;93545.66;;;25.46
62930;BMP280;49036;42.782;23.108;2023-06-10T09:22:23;93542.00;;;26.47
62930;BMP280;49036;42.782;23.108;2023-06-10T09:24:48;93538.84;;;27.24
62930;BMP280;49036;42.782;23.108;2023-06-10T09:27:14;93537.19;;;27.55
62930;BMP280;49036;42.782;23.108;2023-06-10T09:32:13;93536.66;;;27.29
62930;BMP280;49036;42.782;23.108;2023-06-10T09:34:39;93532.63;;;26.89
62930;BMP280;49036;42.782;23.108;2023-06-10T09:37:06;93537.09;;;26.31
62930;BMP280;49036;42.782;23.108;2023-06-10T09:39:33;93537.56;;;27.01
62930;BMP280;49036;42.782;23.108;2023-06-10T09:41:59;93546.41;;;27.64
62930;BMP280;49036;42.782;23.108;2023-06-10T09:44:24;93523.56;;;27.70
62930;BMP280;49036;42.782;23.108;2023-06-10T09:46:50;93525.69;;;27.70
62930;BMP280;49036;42.782;23.108;2023-06-10T09:49:17;93520.00;;;29.49
62930;BMP280;49036;42.782;23.108;2023-06-10T09:51:53;93524.97;;;28.47
62930;BMP280;49036;42.782;23.108;2023-06-10T09:54:20;93525.78;;;27.59
62930;BMP280;49036;42.782;23.108;2023-06-10T09:56:49;93521.03;;;27.24
62930;BMP280;49036;42.782;23.108;2023-06-10T09:59:15;93507.00;;;27.87
62930;BMP280;49036;42.782;23.108;2023-06-10T10:01:41;93514.59;;;28.15
62930;BMP280;49036;42.782;23.108;2023-06-10T10:04:07;93506.78;;;28.70
62930;BMP280;49036;42.782;23.108;2023-06-10T10:06:33;93511.63;;;28.82
62930;BMP280;49036;42.782;23.108;2023-06-10T10:08:59;93500.97;;;28.21
62930;BMP280;49036;42.782;23.108;2023-06-10T10:11:25;93502.63;;;27.94
62930;BMP280;49036;42.782;23.108;2023-06-10T10:13:52;93497.41;;;30.13
62930;BMP280;49036;42.782;23.108;2023-06-10T10:16:29;93496.16;;;29.63
62930;BMP280;49036;42.782;23.108;2023-06-10T10:18:56;93496.50;;;28.36
62930;BMP280;49036;42.782;23.108;2023-06-10T10:22:52;93497.88;;;26.58
62930;BMP280;49036;42.782;23.108;2023-06-10T10:25:40;93495.81;;;27.62
62930;BMP280;49036;42.782;23.108;2023-06-10T10:28:09;93492.53;;;29.64
62930;BMP280;49036;42.782;23.108;2023-06-10T10:30:53;93490.06;;;32.59
62930;BMP280;49036;42.782;23.108;2023-06-10T10:33:22;93485.91;;;34.46
62930;BMP280;49036;42.782;23.108;2023-06-10T10:35:53;93485.38;;;34.98
62930;BMP280;49036;42.782;23.108;2023-06-10T10:38:19;93484.75;;;33.58
62930;BMP280;49036;42.782;23.108;2023-06-10T10:40:45;93483.69;;;34.67
62930;BMP280;49036;42.782;23.108;2023-06-10T10:43:11;93476.50;;;34.08
62930;BMP280;49036;42.782;23.108;2023-06-10T10:45:37;93468.69;;;32.99
62930;BMP280;49036;42.782;23.108;2023-06-10T10:48:08;93474.38;;;32.29
62930;BMP280;49036;42.782;23.108;2023-06-10T10:50:37;93474.31;;;32.06
62930;BMP280;49036;42.782;23.108;2023-06-10T10:53:04;93476.56;;;30.86
62930;BMP280;49036;42.782;23.108;2023-06-10T10:55:30;93477.84;;;29.89
62930;BMP280;49036;42.782;23.108;2023-06-10T11:00:34;93464.97;;;29.00
62930;BMP280;49036;42.782;23.108;2023-06-10T11:03:05;93457.91;;;28.95
62930;BMP280;49036;42.782;23.108;2023-06-10T11:05:42;93458.34;;;28.64
62930;BMP280;49036;42.782;23.108;2023-06-10T11:08:14;93457.44;;;30.07
62930;BMP280;49036;42.782;23.108;2023-06-10T11:10:52;93463.59;;;32.05
62930;BMP280;49036;42.782;23.108;2023-06-10T11:13:22;93459.09;;;32.36
62930;BMP280;49036;42.782;23.108;2023-06-10T11:15:49;93448.34;;;31.57
62930;BMP280;49036;42.782;23.108;2023-06-10T11:18:25;93455.31;;;31.06
62930;BMP280;49036;42.782;23.108;2023-06-10T11:20:53;93448.44;;;30.62
62930;BMP280;49036;42.782;23.108;2023-06-10T11:25:51;93439.72;;;33.05
62930;BMP280;49036;42.782;23.108;2023-06-10T11:29:04;93442.19;;;35.98
62930;BMP280;49036;42.782;23.108;2023-06-10T11:34:03;93434.66;;;39.97
62930;BMP280;49036;42.782;23.108;2023-06-10T11:36:30;93433.66;;;42.19
62930;BMP280;49036;42.782;23.108;2023-06-10T11:40:16;93441.22;;;41.94
62930;BMP280;49036;42.782;23.108;2023-06-10T11:42:42;93431.06;;;42.04
62930;BMP280;49036;42.782;23.108;2023-06-10T11:45:08;93434.81;;;42.02
62930;BMP280;49036;42.782;23.108;2023-06-10T11:47:33;93437.56;;;40.88
62930;BMP280;49036;42.782;23.108;2023-06-10T11:49:59;93431.63;;;39.99
62930;BMP280;49036;42.782;23.108;2023-06-10T11:52:29;93427.03;;;38.30
62930;BMP280;49036;42.782;23.108;2023-06-10T11:54:56;93419.25;;;37.44
62930;BMP280;49036;42.782;23.108;2023-06-10T11:57:22;93422.16;;;35.77
62930;BMP280;49036;42.782;23.108;2023-06-10T11:59:47;93416.25;;;34.96
62930;BMP280;49036;42.782;23.108;2023-06-10T12:02:16;93418.53;;;33.79
62930;BMP280;49036;42.782;23.108;2023-06-10T12:04:42;93413.41;;;32.74
62930;BMP280;49036;42.782;23.108;2023-06-10T12:07:08;93427.66;;;32.06
62930;BMP280;49036;42.782;23.108;2023-06-10T12:09:33;93420.75;;;31.70
62930;BMP280;49036;42.782;23.108;2023-06-10T12:13:00;93419.72;;;31.26
62930;BMP280;49036;42.782;23.108;2023-06-10T12:15:26;93412.31;;;30.44
62930;BMP280;49036;42.782;23.108;2023-06-10T12:17:54;93413.75;;;29.30
62930;BMP280;49036;42.782;23.108;2023-06-10T12:20:28;93414.00;;;27.45
62930;BMP280;49036;42.782;23.108;2023-06-10T12:22:54;93421.22;;;26.12
62930;BMP280;49036;42.782;23.108;2023-06-10T12:25:24;93434.13;;;25.20
62930;BMP280;49036;42.782;23.108;2023-06-10T12:27:52;93427.56;;;24.46
62930;BMP280;49036;42.782;23.108;2023-06-10T12:30:22;93425.81;;;23.80
62930;BMP280;49036;42.782;23.108;2023-06-10T12:32:48;93428.78;;;23.10
62930;BMP280;49036;42.782;23.108;2023-06-10T12:35:19;93455.56;;;21.86
62930;BMP280;49036;42.782;23.108;2023-06-10T12:38:03;93461.41;;;20.74
62930;BMP280;49036;42.782;23.108;2023-06-10T12:40:33;93449.06;;;19.62
62930;BMP280;49036;42.782;23.108;2023-06-10T12:43:00;93468.84;;;18.58
62930;BMP280;49036;42.782;23.108;2023-06-10T12:45:30;93482.84;;;17.65
62930;BMP280;49036;42.782;23.108;2023-06-10T12:48:06;93483.59;;;17.04
62930;BMP280;49036;42.782;23.108;2023-06-10T12:51:53;93492.22;;;16.53
62930;BMP280;49036;42.782;23.108;2023-06-10T12:54:19;93490.06;;;16.31
62930;BMP280;49036;42.782;23.108;2023-06-10T12:56:45;93500.44;;;16.29
62930;BMP280;49036;42.782;23.108;2023-06-10T12:59:10;93495.50;;;16.27
62930;BMP280;49036;42.782;23.108;2023-06-10T13:01:37;93503.75;;;16.06
62930;BMP280;49036;42.782;23.108;2023-06-10T13:04:05;93505.19;;;16.07
62930;BMP280;49036;42.782;23.108;2023-06-10T13:06:31;93504.38;;;16.04
62930;BMP280;49036;42.782;23.108;2023-06-10T13:08:58;93513.97;;;15.99
62930;BMP280;49036;42.782;23.108;2023-06-10T13:11:24;93523.66;;;15.96
62930;BMP280;49036;42.782;23.108;2023-06-10T13:13:51;93521.22;;;15.88
62930;BMP280;49036;42.782;23.108;2023-06-10T13:16:16;93526.06;;;15.86
62930;BMP280;49036;42.782;23.108;2023-06-10T13:18:42;93530.47;;;15.91
62930;BMP280;49036;42.782;23.108;2023-06-10T13:21:07;93525.59;;;15.91
62930;BMP280;49036;42.782;23.108;2023-06-10T13:24:27;93515.31;;;16.16
62930;BMP280;49036;42.782;23.108;2023-06-10T13:27:44;93512.03;;;16.39
62930;BMP280;49036;42.782;23.108;2023-06-10T13:30:10;93508.56;;;16.58
62930;BMP280;49036;42.782;23.108;2023-06-10T13:32:36;93500.97;;;16.61
62930;BMP280;49036;42.782;23.108;2023-06-10T13:35:02;93506.47;;;16.59
62930;BMP280;49036;42.782;23.108;2023-06-10T13:38:58;93494.94;;;16.69
62930;BMP280;49036;42.782;23.108;2023-06-10T13:41:23;93488.84;;;16.74
62930;BMP280;49036;42.782;23.108;2023-06-10T13:43:50;93485.44;;;16.78
62930;BMP280;49036;42.782;23.108;2023-06-10T13:46:15;93491.50;;;16.90
62930;BMP280;49036;42.782;23.108;2023-06-10T13:48:41;93482.31;;;17.07
62930;BMP280;49036;42.782;23.108;2023-06-10T13:51:07;93478.47;;;17.18
62930;BMP280;49036;42.782;23.108;2023-06-10T13:53:34;93475.53;;;17.34
62930;BMP280;49036;42.782;23.108;2023-06-10T13:55:59;93467.63;;;17.50
62930;BMP280;49036;42.782;23.108;2023-06-10T13:58:25;93455.16;;;17.77
62930;BMP280;49036;42.782;23.108;2023-06-10T14:00:51;93450.41;;;18.03
62930;BMP280;49036;42.782;23.108;2023-06-10T14:03:16;93446.41;;;18.34
62930;BMP280;49036;42.782;23.108;2023-06-10T14:05:42;93431.16;;;18.67
62930;BMP280;49036;42.782;23.108;2023-06-10T14:08:07;93436.66;;;18.89
62930;BMP280;49036;42.782;23.108;2023-06-10T14:10:33;93435.47;;;18.96
62930;BMP280;49036;42.782;23.108;2023-06-10T14:12:58;93432.75;;;19.00
62930;BMP280;49036;42.782;23.108;2023-06-10T14:15:25;93436.84;;;18.95
62930;BMP280;49036;42.782;23.108;2023-06-10T14:17:51;93422.88;;;19.27
62930;BMP280;49036;42.782;23.108;2023-06-10T14:20:16;93413.97;;;19.65
62930;BMP280;49036;42.782;23.108;2023-06-10T14:22:42;93421.41;;;20.14
62930;BMP280;49036;42.782;23.108;2023-06-10T14:25:07;93423.38;;;20.41
62930;BMP280;49036;42.782;23.108;2023-06-10T14:27:33;93415.34;;;20.64
62930;BMP280;49036;42.782;23.108;2023-06-10T14:29:58;93418.84;;;20.98
62930;BMP280;49036;42.782;23.108;2023-06-10T14:43:05;93414.81;;;22.58